sensor_id;sensor_type;location;lat;lon;timestamp;pressure;altitude;pressure_sealevel;temperature
9985;BMP180;16737;50.932;6.780;2024-03-08T00:00:34;100320.00;;;7.90
9985;BMP180;16737;50.932;6.780;2024-03-08T00:03:01;100330.00;;;7.80
9985;BMP180;16737;50.932;6.780;2024-03-08T00:05:28;100317.00;;;7.80
9985;BMP180;16737;50.932;6.780;2024-03-08T00:07:55;100321.00;;;7.80
9985;BMP180;16737;50.932;6.780;2024-03-08T00:10:24;100314.00;;;7.80
9985;BMP180;16737;50.932;6.780;2024-03-08T00:12:51;100313.00;;;7.80
9985;BMP180;16737;50.932;6.780;2024-03-08T00:15:19;100310.00;;;7.80
9985;BMP180;16737;50.932;6.780;2024-03-08T00:17:48;100297.00;;;7.70
9985;BMP180;16737;50.932;6.780;2024-03-08T00:20:16;100297.00;;;7.70
9985;BMP180;16737;50.932;6.780;2024-03-08T00:22:44;100303.00;;;7.70
9985;BMP180;16737;50.932;6.780;2024-03-08T00:25:11;100288.00;;;7.70
9985;BMP180;16737;50.932;6.780;2024-03-08T00:27:40;100287.00;;;7.60
9985;BMP180;16737;50.932;6.780;2024-03-08T00:30:08;100298.00;;;7.60
9985;BMP180;16737;50.932;6.780;2024-03-08T00:32:36;100288.00;;;7.60
9985;BMP180;16737;50.932;6.780;2024-03-08T00:35:04;100285.00;;;7.60
9985;BMP180;16737;50.932;6.780;2024-03-08T00:37:32;100291.00;;;7.50
9985;BMP180;16737;50.932;6.780;2024-03-08T00:40:00;100287.00;;;7.50
9985;BMP180;16737;50.932;6.780;2024-03-08T00:42:27;100282.00;;;7.50
9985;BMP180;16737;50.932;6.780;2024-03-08T00:44:55;100279.00;;;7.40
9985;BMP180;16737;50.932;6.780;2024-03-08T00:47:23;100283.00;;;7.40
9985;BMP180;16737;50.932;6.780;2024-03-08T00:49:50;100277.00;;;7.40
9985;BMP180;16737;50.932;6.780;2024-03-08T00:52:18;100262.00;;;7.40
9985;BMP180;16737;50.932;6.780;2024-03-08T00:54:46;100274.00;;;7.30
9985;BMP180;16737;50.932;6.780;2024-03-08T00:57:13;100283.00;;;7.30
9985;BMP180;16737;50.932;6.780;2024-03-08T00:59:40;100269.00;;;7.30
9985;BMP180;16737;50.932;6.780;2024-03-08T01:02:08;100258.00;;;7.20
9985;BMP180;16737;50.932;6.780;2024-03-08T01:04:36;100268.00;;;7.20
9985;BMP180;16737;50.932;6.780;2024-03-08T01:07:03;100263.00;;;7.20
9985;BMP180;16737;50.932;6.780;2024-03-08T01:09:30;100256.00;;;7.10
9985;BMP180;16737;50.932;6.780;2024-03-08T01:11:57;100256.00;;;7.10
9985;BMP180;16737;50.932;6.780;2024-03-08T01:14:25;100254.00;;;7.10
9985;BMP180;16737;50.932;6.780;2024-03-08T01:16:52;100262.00;;;7.10
9985;BMP180;16737;50.932;6.780;2024-03-08T01:19:22;100253.00;;;7.10
9985;BMP180;16737;50.932;6.780;2024-03-08T01:21:49;100243.00;;;7.10
9985;BMP180;16737;50.932;6.780;2024-03-08T01:24:17;100239.00;;;7.10
9985;BMP180;16737;50.932;6.780;2024-03-08T01:26:44;100242.00;;;7.10
9985;BMP180;16737;50.932;6.780;2024-03-08T01:29:11;100235.00;;;7.10
9985;BMP180;16737;50.932;6.780;2024-03-08T01:31:38;100231.00;;;7.00
9985;BMP180;16737;50.932;6.780;2024-03-08T01:34:05;100228.00;;;7.00
9985;BMP180;16737;50.932;6.780;2024-03-08T01:36:33;100220.00;;;7.00
9985;BMP180;16737;50.932;6.780;2024-03-08T01:39:03;100222.00;;;7.00
9985;BMP180;16737;50.932;6.780;2024-03-08T01:41:33;100217.00;;;7.00
9985;BMP180;16737;50.932;6.780;2024-03-08T01:44:01;100214.00;;;7.00
9985;BMP180;16737;50.932;6.780;2024-03-08T01:46:29;100207.00;;;7.00
9985;BMP180;16737;50.932;6.780;2024-03-08T01:48:56;100210.00;;;6.90
9985;BMP180;16737;50.932;6.780;2024-03-08T01:51:24;100202.00;;;6.90
9985;BMP180;16737;50.932;6.780;2024-03-08T01:53:52;100209.00;;;6.90
9985;BMP180;16737;50.932;6.780;2024-03-08T01:56:19;100205.00;;;6.90
9985;BMP180;16737;50.932;6.780;2024-03-08T01:58:47;100204.00;;;6.90
9985;BMP180;16737;50.932;6.780;2024-03-08T02:01:15;100198.00;;;6.90
9985;BMP180;16737;50.932;6.780;2024-03-08T02:03:42;100187.00;;;6.90
9985;BMP180;16737;50.932;6.780;2024-03-08T02:06:11;100204.00;;;6.90
9985;BMP180;16737;50.932;6.780;2024-03-08T02:08:42;100184.00;;;6.90
9985;BMP180;16737;50.932;6.780;2024-03-08T02:11:12;100163.00;;;6.90
9985;BMP180;16737;50.932;6.780;2024-03-08T02:13:39;100190.00;;;6.80
9985;BMP180;16737;50.932;6.780;2024-03-08T02:16:06;100189.00;;;6.80
9985;BMP180;16737;50.932;6.780;2024-03-08T02:18:34;100189.00;;;6.80
9985;BMP180;16737;50.932;6.780;2024-03-08T02:21:05;100170.00;;;6.80
9985;BMP180;16737;50.932;6.780;2024-03-08T02:23:33;100166.00;;;6.70
9985;BMP180;16737;50.932;6.780;2024-03-08T02:26:00;100174.00;;;6.70
9985;BMP180;16737;50.932;6.780;2024-03-08T02:28:27;100164.00;;;6.70
9985;BMP180;16737;50.932;6.780;2024-03-08T02:30:54;100177.00;;;6.70
9985;BMP180;16737;50.932;6.780;2024-03-08T02:33:23;100167.00;;;6.70
9985;BMP180;16737;50.932;6.780;2024-03-08T02:35:51;100175.00;;;6.70
9985;BMP180;16737;50.932;6.780;2024-03-08T02:38:21;100159.00;;;6.60
9985;BMP180;16737;50.932;6.780;2024-03-08T02:40:51;100165.00;;;6.60
9985;BMP180;16737;50.932;6.780;2024-03-08T02:43:20;100164.00;;;6.60
9985;BMP180;16737;50.932;6.780;2024-03-08T02:45:48;100160.00;;;6.60
9985;BMP180;16737;50.932;6.780;2024-03-08T02:48:15;100159.00;;;6.60
9985;BMP180;16737;50.932;6.780;2024-03-08T02:50:43;100149.00;;;6.60
9985;BMP180;16737;50.932;6.780;2024-03-08T02:53:10;100151.00;;;6.60
9985;BMP180;16737;50.932;6.780;2024-03-08T02:55:39;100152.00;;;6.60
9985;BMP180;16737;50.932;6.780;2024-03-08T02:58:08;100152.00;;;6.50
9985;BMP180;16737;50.932;6.780;2024-03-08T03:00:36;100156.00;;;6.50
9985;BMP180;16737;50.932;6.780;2024-03-08T03:03:04;100163.00;;;6.50
9985;BMP180;16737;50.932;6.780;2024-03-08T03:05:32;100153.00;;;6.50
9985;BMP180;16737;50.932;6.780;2024-03-08T03:07:59;100146.00;;;6.50
9985;BMP180;16737;50.932;6.780;2024-03-08T03:10:26;100147.00;;;6.40
9985;BMP180;16737;50.932;6.780;2024-03-08T03:12:55;100145.00;;;6.40
9985;BMP180;16737;50.932;6.780;2024-03-08T03:15:22;100137.00;;;6.50
9985;BMP180;16737;50.932;6.780;2024-03-08T03:17:50;100135.00;;;6.40
9985;BMP180;16737;50.932;6.780;2024-03-08T03:20:18;100139.00;;;6.40
9985;BMP180;16737;50.932;6.780;2024-03-08T03:22:52;100128.00;;;6.40
9985;BMP180;16737;50.932;6.780;2024-03-08T03:25:20;100124.00;;;6.40
9985;BMP180;16737;50.932;6.780;2024-03-08T03:27:52;100122.00;;;6.40
9985;BMP180;16737;50.932;6.780;2024-03-08T03:30:24;100130.00;;;6.30
9985;BMP180;16737;50.932;6.780;2024-03-08T03:32:53;100128.00;;;6.30
9985;BMP180;16737;50.932;6.780;2024-03-08T03:35:22;100120.00;;;6.30
9985;BMP180;16737;50.932;6.780;2024-03-08T03:37:50;100129.00;;;6.20
9985;BMP180;16737;50.932;6.780;2024-03-08T03:40:27;100126.00;;;6.20
9985;BMP180;16737;50.932;6.780;2024-03-08T03:42:54;100128.00;;;6.20
9985;BMP180;16737;50.932;6.780;2024-03-08T03:45:23;100131.00;;;6.10
9985;BMP180;16737;50.932;6.780;2024-03-08T03:47:51;100125.00;;;6.10
9985;BMP180;16737;50.932;6.780;2024-03-08T03:50:18;100120.00;;;6.00
9985;BMP180;16737;50.932;6.780;2024-03-08T03:52:46;100117.00;;;6.00
9985;BMP180;16737;50.932;6.780;2024-03-08T03:55:13;100110.00;;;6.00
9985;BMP180;16737;50.932;6.780;2024-03-08T03:57:41;100043.00;;;5.90
9985;BMP180;16737;50.932;6.780;2024-03-08T04:00:10;100113.00;;;5.90
9985;BMP180;16737;50.932;6.780;2024-03-08T04:02:39;100099.00;;;5.90
9985;BMP180;16737;50.932;6.780;2024-03-08T04:05:09;100089.00;;;5.90
9985;BMP180;16737;50.932;6.780;2024-03-08T04:07:38;100098.00;;;5.90
9985;BMP180;16737;50.932;6.780;2024-03-08T04:10:08;100098.00;;;5.90
9985;BMP180;16737;50.932;6.780;2024-03-08T04:12:37;100099.00;;;5.80
9985;BMP180;16737;50.932;6.780;2024-03-08T04:15:06;100105.00;;;5.80
9985;BMP180;16737;50.932;6.780;2024-03-08T04:17:33;100099.00;;;5.80
9985;BMP180;16737;50.932;6.780;2024-03-08T04:20:05;100097.00;;;5.80
9985;BMP180;16737;50.932;6.780;2024-03-08T04:22:36;100094.00;;;5.80
9985;BMP180;16737;50.932;6.780;2024-03-08T04:25:03;100090.00;;;5.80
9985;BMP180;16737;50.932;6.780;2024-03-08T04:27:32;100081.00;;;5.80
9985;BMP180;16737;50.932;6.780;2024-03-08T04:30:00;100069.00;;;5.80
9985;BMP180;16737;50.932;6.780;2024-03-08T04:32:27;100090.00;;;5.70
9985;BMP180;16737;50.932;6.780;2024-03-08T04:34:55;100082.00;;;5.70
9985;BMP180;16737;50.932;6.780;2024-03-08T04:37:24;100073.00;;;5.70
9985;BMP180;16737;50.932;6.780;2024-03-08T04:39:51;100081.00;;;5.70
9985;BMP180;16737;50.932;6.780;2024-03-08T04:42:18;100085.00;;;5.70
9985;BMP180;16737;50.932;6.780;2024-03-08T04:44:45;100078.00;;;5.70
9985;BMP180;16737;50.932;6.780;2024-03-08T04:47:13;100066.00;;;5.70
9985;BMP180;16737;50.932;6.780;2024-03-08T04:49:40;100062.00;;;5.70
9985;BMP180;16737;50.932;6.780;2024-03-08T04:52:07;100068.00;;;5.70
9985;BMP180;16737;50.932;6.780;2024-03-08T04:54:35;100075.00;;;5.80
9985;BMP180;16737;50.932;6.780;2024-03-08T04:57:02;100075.00;;;5.80
9985;BMP180;16737;50.932;6.780;2024-03-08T04:59:30;100069.00;;;5.80
9985;BMP180;16737;50.932;6.780;2024-03-08T05:01:57;100068.00;;;5.80
9985;BMP180;16737;50.932;6.780;2024-03-08T05:04:24;100052.00;;;5.80
9985;BMP180;16737;50.932;6.780;2024-03-08T05:06:51;100056.00;;;5.80
9985;BMP180;16737;50.932;6.780;2024-03-08T05:09:19;100069.00;;;5.90
9985;BMP180;16737;50.932;6.780;2024-03-08T05:11:50;100034.00;;;5.90
9985;BMP180;16737;50.932;6.780;2024-03-08T05:14:17;100037.00;;;5.90
9985;BMP180;16737;50.932;6.780;2024-03-08T05:16:46;100048.00;;;5.80
9985;BMP180;16737;50.932;6.780;2024-03-08T05:19:15;100051.00;;;5.80
9985;BMP180;16737;50.932;6.780;2024-03-08T05:21:43;100051.00;;;5.80
9985;BMP180;16737;50.932;6.780;2024-03-08T05:24:10;100019.00;;;5.80
9985;BMP180;16737;50.932;6.780;2024-03-08T05:26:39;100044.00;;;5.80
9985;BMP180;16737;50.932;6.780;2024-03-08T05:29:07;100039.00;;;5.80
9985;BMP180;16737;50.932;6.780;2024-03-08T05:31:45;100040.00;;;5.70
9985;BMP180;16737;50.932;6.780;2024-03-08T05:34:12;100038.00;;;5.80
9985;BMP180;16737;50.932;6.780;2024-03-08T05:36:40;100038.00;;;5.80
9985;BMP180;16737;50.932;6.780;2024-03-08T05:39:10;100051.00;;;5.80
9985;BMP180;16737;50.932;6.780;2024-03-08T05:41:37;100034.00;;;5.80
9985;BMP180;16737;50.932;6.780;2024-03-08T05:44:06;100034.00;;;5.80
9985;BMP180;16737;50.932;6.780;2024-03-08T05:46:33;100040.00;;;5.80
9985;BMP180;16737;50.932;6.780;2024-03-08T05:49:01;100032.00;;;5.80
9985;BMP180;16737;50.932;6.780;2024-03-08T05:51:31;100024.00;;;5.80
9985;BMP180;16737;50.932;6.780;2024-03-08T05:54:00;100026.00;;;5.80
9985;BMP180;16737;50.932;6.780;2024-03-08T05:56:28;100018.00;;;5.80
9985;BMP180;16737;50.932;6.780;2024-03-08T05:58:56;100019.00;;;5.80
9985;BMP180;16737;50.932;6.780;2024-03-08T06:01:25;100026.00;;;5.80
9985;BMP180;16737;50.932;6.780;2024-03-08T06:03:52;100022.00;;;5.80
9985;BMP180;16737;50.932;6.780;2024-03-08T06:06:22;100019.00;;;5.80
9985;BMP180;16737;50.932;6.780;2024-03-08T06:08:49;100028.00;;;5.90
9985;BMP180;16737;50.932;6.780;2024-03-08T06:11:17;100017.00;;;5.80
9985;BMP180;16737;50.932;6.780;2024-03-08T06:13:45;100010.00;;;5.80
9985;BMP180;16737;50.932;6.780;2024-03-08T06:16:12;100024.00;;;5.90
9985;BMP180;16737;50.932;6.780;2024-03-08T06:18:40;100022.00;;;5.80
9985;BMP180;16737;50.932;6.780;2024-03-08T06:21:08;100009.00;;;5.90
9985;BMP180;16737;50.932;6.780;2024-03-08T06:23:37;100011.00;;;5.90
9985;BMP180;16737;50.932;6.780;2024-03-08T06:26:05;100014.00;;;5.90
9985;BMP180;16737;50.932;6.780;2024-03-08T06:28:32;100017.00;;;5.90
9985;BMP180;16737;50.932;6.780;2024-03-08T06:31:00;100013.00;;;5.90
9985;BMP180;16737;50.932;6.780;2024-03-08T06:33:28;100012.00;;;5.90
9985;BMP180;16737;50.932;6.780;2024-03-08T06:35:57;100002.00;;;6.00
9985;BMP180;16737;50.932;6.780;2024-03-08T06:38:24;100015.00;;;6.00
9985;BMP180;16737;50.932;6.780;2024-03-08T06:40:52;100010.00;;;6.00
9985;BMP180;16737;50.932;6.780;2024-03-08T06:43:20;100016.00;;;6.00
9985;BMP180;16737;50.932;6.780;2024-03-08T06:45:47;100010.00;;;6.00
9985;BMP180;16737;50.932;6.780;2024-03-08T06:48:15;100014.00;;;6.10
9985;BMP180;16737;50.932;6.780;2024-03-08T06:50:43;100013.00;;;6.10
9985;BMP180;16737;50.932;6.780;2024-03-08T06:53:12;100009.00;;;6.10
9985;BMP180;16737;50.932;6.780;2024-03-08T06:55:39;100011.00;;;6.20
9985;BMP180;16737;50.932;6.780;2024-03-08T06:58:06;100008.00;;;6.20
9985;BMP180;16737;50.932;6.780;2024-03-08T07:00:33;100007.00;;;6.20
9985;BMP180;16737;50.932;6.780;2024-03-08T07:03:01;100002.00;;;6.30
9985;BMP180;16737;50.932;6.780;2024-03-08T07:05:30;100008.00;;;6.30
9985;BMP180;16737;50.932;6.780;2024-03-08T07:07:58;100010.00;;;6.40
9985;BMP180;16737;50.932;6.780;2024-03-08T07:10:27;100001.00;;;6.40
9985;BMP180;16737;50.932;6.780;2024-03-08T07:12:54;100010.00;;;6.50
9985;BMP180;16737;50.932;6.780;2024-03-08T07:15:21;100008.00;;;6.50
9985;BMP180;16737;50.932;6.780;2024-03-08T07:17:49;100009.00;;;6.60
9985;BMP180;16737;50.932;6.780;2024-03-08T07:20:18;99995.00;;;6.60
9985;BMP180;16737;50.932;6.780;2024-03-08T07:22:45;100003.00;;;6.70
9985;BMP180;16737;50.932;6.780;2024-03-08T07:25:14;100002.00;;;6.70
9985;BMP180;16737;50.932;6.780;2024-03-08T07:27:48;100000.00;;;6.80
9985;BMP180;16737;50.932;6.780;2024-03-08T07:30:16;99999.00;;;6.90
9985;BMP180;16737;50.932;6.780;2024-03-08T07:32:57;100000.00;;;7.00
9985;BMP180;16737;50.932;6.780;2024-03-08T07:35:24;99997.00;;;7.00
9985;BMP180;16737;50.932;6.780;2024-03-08T07:37:52;99996.00;;;7.10
9985;BMP180;16737;50.932;6.780;2024-03-08T07:40:20;99986.00;;;7.10
9985;BMP180;16737;50.932;6.780;2024-03-08T07:42:49;99969.00;;;7.20
9985;BMP180;16737;50.932;6.780;2024-03-08T07:45:16;99982.00;;;7.20
9985;BMP180;16737;50.932;6.780;2024-03-08T07:47:43;99969.00;;;7.30
9985;BMP180;16737;50.932;6.780;2024-03-08T07:50:10;99981.00;;;7.40
9985;BMP180;16737;50.932;6.780;2024-03-08T07:52:41;99978.00;;;7.40
9985;BMP180;16737;50.932;6.780;2024-03-08T07:55:09;99952.00;;;7.50
9985;BMP180;16737;50.932;6.780;2024-03-08T07:57:37;99968.00;;;7.60
9985;BMP180;16737;50.932;6.780;2024-03-08T08:00:07;99971.00;;;7.70
9985;BMP180;16737;50.932;6.780;2024-03-08T08:02:35;99965.00;;;7.70
9985;BMP180;16737;50.932;6.780;2024-03-08T08:05:02;99961.00;;;7.80
9985;BMP180;16737;50.932;6.780;2024-03-08T08:07:29;99968.00;;;7.90
9985;BMP180;16737;50.932;6.780;2024-03-08T08:09:56;99964.00;;;8.00
9985;BMP180;16737;50.932;6.780;2024-03-08T08:12:23;99960.00;;;8.00
9985;BMP180;16737;50.932;6.780;2024-03-08T08:14:51;99959.00;;;8.10
9985;BMP180;16737;50.932;6.780;2024-03-08T08:17:19;99951.00;;;8.20
9985;BMP180;16737;50.932;6.780;2024-03-08T08:19:46;99950.00;;;8.30
9985;BMP180;16737;50.932;6.780;2024-03-08T08:22:14;99944.00;;;8.40
9985;BMP180;16737;50.932;6.780;2024-03-08T08:24:41;99909.00;;;8.40
9985;BMP180;16737;50.932;6.780;2024-03-08T08:27:08;99940.00;;;8.50
9985;BMP180;16737;50.932;6.780;2024-03-08T08:29:35;99934.00;;;8.60
9985;BMP180;16737;50.932;6.780;2024-03-08T08:32:02;99934.00;;;8.60
9985;BMP180;16737;50.932;6.780;2024-03-08T08:34:30;99930.00;;;8.70
9985;BMP180;16737;50.932;6.780;2024-03-08T08:36:58;99929.00;;;8.80
9985;BMP180;16737;50.932;6.780;2024-03-08T08:39:28;99919.00;;;8.80
9985;BMP180;16737;50.932;6.780;2024-03-08T08:41:55;99913.00;;;8.90
9985;BMP180;16737;50.932;6.780;2024-03-08T08:44:22;99920.00;;;9.00
9985;BMP180;16737;50.932;6.780;2024-03-08T08:46:49;99912.00;;;9.00
9985;BMP180;16737;50.932;6.780;2024-03-08T08:49:17;99900.00;;;9.10
9985;BMP180;16737;50.932;6.780;2024-03-08T08:51:50;99893.00;;;9.20
9985;BMP180;16737;50.932;6.780;2024-03-08T08:54:17;99906.00;;;9.30
9985;BMP180;16737;50.932;6.780;2024-03-08T08:56:44;99906.00;;;9.30
9985;BMP180;16737;50.932;6.780;2024-03-08T08:59:13;99907.00;;;9.40
9985;BMP180;16737;50.932;6.780;2024-03-08T09:01:40;99901.00;;;9.50
9985;BMP180;16737;50.932;6.780;2024-03-08T09:04:07;99909.00;;;9.60
9985;BMP180;16737;50.932;6.780;2024-03-08T09:06:34;99909.00;;;9.70
9985;BMP180;16737;50.932;6.780;2024-03-08T09:09:03;99899.00;;;9.80
9985;BMP180;16737;50.932;6.780;2024-03-08T09:11:30;99900.00;;;9.80
9985;BMP180;16737;50.932;6.780;2024-03-08T09:13:57;99888.00;;;9.90
9985;BMP180;16737;50.932;6.780;2024-03-08T09:16:24;99898.00;;;10.00
9985;BMP180;16737;50.932;6.780;2024-03-08T09:18:52;99897.00;;;10.10
9985;BMP180;16737;50.932;6.780;2024-03-08T09:21:19;99891.00;;;10.20
9985;BMP180;16737;50.932;6.780;2024-03-08T09:23:46;99889.00;;;10.30
9985;BMP180;16737;50.932;6.780;2024-03-08T09:26:14;99898.00;;;10.50
9985;BMP180;16737;50.932;6.780;2024-03-08T09:28:42;99890.00;;;10.60
9985;BMP180;16737;50.932;6.780;2024-03-08T09:31:09;99890.00;;;10.70
9985;BMP180;16737;50.932;6.780;2024-03-08T09:33:37;99894.00;;;10.70
9985;BMP180;16737;50.932;6.780;2024-03-08T09:36:06;99886.00;;;10.80
9985;BMP180;16737;50.932;6.780;2024-03-08T09:38:33;99853.00;;;10.90
9985;BMP180;16737;50.932;6.780;2024-03-08T09:41:01;99865.00;;;11.00
9985;BMP180;16737;50.932;6.780;2024-03-08T09:43:31;99867.00;;;11.00
9985;BMP180;16737;50.932;6.780;2024-03-08T09:45:58;99864.00;;;11.10
9985;BMP180;16737;50.932;6.780;2024-03-08T09:48:26;99860.00;;;11.20
9985;BMP180;16737;50.932;6.780;2024-03-08T09:50:54;99854.00;;;11.20
9985;BMP180;16737;50.932;6.780;2024-03-08T09:53:22;99855.00;;;11.30
9985;BMP180;16737;50.932;6.780;2024-03-08T09:55:50;99851.00;;;11.30
9985;BMP180;16737;50.932;6.780;2024-03-08T09:58:17;99850.00;;;11.50
9985;BMP180;16737;50.932;6.780;2024-03-08T10:01:03;99847.00;;;11.60
9985;BMP180;16737;50.932;6.780;2024-03-08T10:03:32;99850.00;;;11.70
9985;BMP180;16737;50.932;6.780;2024-03-08T10:05:59;99845.00;;;11.70
9985;BMP180;16737;50.932;6.780;2024-03-08T10:08:27;99836.00;;;11.90
9985;BMP180;16737;50.932;6.780;2024-03-08T10:10:55;99832.00;;;12.00
9985;BMP180;16737;50.932;6.780;2024-03-08T10:13:25;99835.00;;;12.10
9985;BMP180;16737;50.932;6.780;2024-03-08T10:15:53;99831.00;;;12.20
9985;BMP180;16737;50.932;6.780;2024-03-08T10:18:22;99818.00;;;12.30
9985;BMP180;16737;50.932;6.780;2024-03-08T10:21:03;99823.00;;;12.40
9985;BMP180;16737;50.932;6.780;2024-03-08T10:23:36;99808.00;;;12.60
9985;BMP180;16737;50.932;6.780;2024-03-08T10:26:11;99822.00;;;12.60
9985;BMP180;16737;50.932;6.780;2024-03-08T10:28:41;99808.00;;;12.70
9985;BMP180;16737;50.932;6.780;2024-03-08T10:31:09;99801.00;;;12.80
9985;BMP180;16737;50.932;6.780;2024-03-08T10:33:38;99796.00;;;12.80
9985;BMP180;16737;50.932;6.780;2024-03-08T10:36:08;99788.00;;;12.90
9985;BMP180;16737;50.932;6.780;2024-03-08T10:38:37;99785.00;;;13.00
9985;BMP180;16737;50.932;6.780;2024-03-08T10:41:06;99778.00;;;13.00
9985;BMP180;16737;50.932;6.780;2024-03-08T10:43:52;99789.00;;;13.10
9985;BMP180;16737;50.932;6.780;2024-03-08T10:46:37;99786.00;;;13.10
9985;BMP180;16737;50.932;6.780;2024-03-08T10:49:16;99796.00;;;13.20
9985;BMP180;16737;50.932;6.780;2024-03-08T10:51:45;99790.00;;;13.30
9985;BMP180;16737;50.932;6.780;2024-03-08T10:54:14;99781.00;;;13.30
9985;BMP180;16737;50.932;6.780;2024-03-08T10:56:43;99782.00;;;13.40
9985;BMP180;16737;50.932;6.780;2024-03-08T10:59:11;99781.00;;;13.40
9985;BMP180;16737;50.932;6.780;2024-03-08T11:01:39;99777.00;;;13.50
9985;BMP180;16737;50.932;6.780;2024-03-08T11:04:08;99775.00;;;13.60
9985;BMP180;16737;50.932;6.780;2024-03-08T11:06:42;99773.00;;;13.60
9985;BMP180;16737;50.932;6.780;2024-03-08T11:09:28;99777.00;;;13.60
9985;BMP180;16737;50.932;6.780;2024-03-08T11:12:24;99776.00;;;13.60
9985;BMP180;16737;50.932;6.780;2024-03-08T11:14:55;99764.00;;;13.60
9985;BMP180;16737;50.932;6.780;2024-03-08T11:17:44;99768.00;;;13.70
9985;BMP180;16737;50.932;6.780;2024-03-08T11:20:14;99756.00;;;13.80
9985;BMP180;16737;50.932;6.780;2024-03-08T11:22:48;99761.00;;;13.80
9985;BMP180;16737;50.932;6.780;2024-03-08T11:25:37;99755.00;;;13.90
9985;BMP180;16737;50.932;6.780;2024-03-08T11:28:12;99759.00;;;13.90
9985;BMP180;16737;50.932;6.780;2024-03-08T11:30:45;99738.00;;;14.00
9985;BMP180;16737;50.932;6.780;2024-03-08T11:33:15;99747.00;;;14.10
9985;BMP180;16737;50.932;6.780;2024-03-08T11:35:44;99741.00;;;14.10
9985;BMP180;16737;50.932;6.780;2024-03-08T11:38:12;99730.00;;;14.10
9985;BMP180;16737;50.932;6.780;2024-03-08T11:40:40;99744.00;;;14.20
9985;BMP180;16737;50.932;6.780;2024-03-08T11:43:08;99730.00;;;14.20
9985;BMP180;16737;50.932;6.780;2024-03-08T11:45:35;99731.00;;;14.30
9985;BMP180;16737;50.932;6.780;2024-03-08T11:48:04;99728.00;;;14.30
9985;BMP180;16737;50.932;6.780;2024-03-08T11:50:31;99719.00;;;14.40
9985;BMP180;16737;50.932;6.780;2024-03-08T11:53:04;99729.00;;;14.50
9985;BMP180;16737;50.932;6.780;2024-03-08T11:55:31;99730.00;;;14.50
9985;BMP180;16737;50.932;6.780;2024-03-08T11:58:05;99729.00;;;14.50
9985;BMP180;16737;50.932;6.780;2024-03-08T12:00:34;99714.00;;;14.50
9985;BMP180;16737;50.932;6.780;2024-03-08T12:03:06;99713.00;;;14.50
9985;BMP180;16737;50.932;6.780;2024-03-08T12:05:35;99716.00;;;14.50
9985;BMP180;16737;50.932;6.780;2024-03-08T12:08:05;99719.00;;;14.50
9985;BMP180;16737;50.932;6.780;2024-03-08T12:10:35;99707.00;;;14.50
9985;BMP180;16737;50.932;6.780;2024-03-08T12:13:04;99713.00;;;14.50
9985;BMP180;16737;50.932;6.780;2024-03-08T12:15:39;99700.00;;;14.50
9985;BMP180;16737;50.932;6.780;2024-03-08T12:18:07;99699.00;;;14.50
9985;BMP180;16737;50.932;6.780;2024-03-08T12:20:37;99703.00;;;14.60
9985;BMP180;16737;50.932;6.780;2024-03-08T12:23:13;99703.00;;;14.60
9985;BMP180;16737;50.932;6.780;2024-03-08T12:25:41;99693.00;;;14.70
9985;BMP180;16737;50.932;6.780;2024-03-08T12:28:08;99691.00;;;14.80
9985;BMP180;16737;50.932;6.780;2024-03-08T12:30:46;99681.00;;;14.80
9985;BMP180;16737;50.932;6.780;2024-03-08T12:33:14;99683.00;;;14.90
9985;BMP180;16737;50.932;6.780;2024-03-08T12:35:51;99664.00;;;14.80
9985;BMP180;16737;50.932;6.780;2024-03-08T12:38:21;99665.00;;;14.90
9985;BMP180;16737;50.932;6.780;2024-03-08T12:40:51;99671.00;;;15.00
9985;BMP180;16737;50.932;6.780;2024-03-08T12:43:22;99665.00;;;15.00
9985;BMP180;16737;50.932;6.780;2024-03-08T12:45:58;99661.00;;;15.00
9985;BMP180;16737;50.932;6.780;2024-03-08T12:48:27;99646.00;;;15.10
9985;BMP180;16737;50.932;6.780;2024-03-08T12:50:54;99650.00;;;15.20
9985;BMP180;16737;50.932;6.780;2024-03-08T12:53:23;99645.00;;;15.20
9985;BMP180;16737;50.932;6.780;2024-03-08T12:55:51;99645.00;;;15.20
9985;BMP180;16737;50.932;6.780;2024-03-08T12:58:18;99649.00;;;15.30
9985;BMP180;16737;50.932;6.780;2024-03-08T13:00:47;99645.00;;;15.30
9985;BMP180;16737;50.932;6.780;2024-03-08T13:03:14;99636.00;;;15.40
9985;BMP180;16737;50.932;6.780;2024-03-08T13:05:42;99637.00;;;15.50
9985;BMP180;16737;50.932;6.780;2024-03-08T13:08:10;99626.00;;;15.50
9985;BMP180;16737;50.932;6.780;2024-03-08T13:10:40;99610.00;;;15.60
9985;BMP180;16737;50.932;6.780;2024-03-08T13:13:09;99619.00;;;15.60
9985;BMP180;16737;50.932;6.780;2024-03-08T13:15:37;99616.00;;;15.70
9985;BMP180;16737;50.932;6.780;2024-03-08T13:18:05;99623.00;;;15.70
9985;BMP180;16737;50.932;6.780;2024-03-08T13:20:34;99608.00;;;15.80
9985;BMP180;16737;50.932;6.780;2024-03-08T13:23:03;99600.00;;;15.80
9985;BMP180;16737;50.932;6.780;2024-03-08T13:25:30;99606.00;;;15.80
9985;BMP180;16737;50.932;6.780;2024-03-08T13:27:59;99596.00;;;15.80
9985;BMP180;16737;50.932;6.780;2024-03-08T13:30:26;99593.00;;;15.90
9985;BMP180;16737;50.932;6.780;2024-03-08T13:32:53;99598.00;;;15.90
9985;BMP180;16737;50.932;6.780;2024-03-08T13:35:21;99582.00;;;15.90
9985;BMP180;16737;50.932;6.780;2024-03-08T13:37:51;99576.00;;;15.90
9985;BMP180;16737;50.932;6.780;2024-03-08T13:40:19;99574.00;;;15.90
9985;BMP180;16737;50.932;6.780;2024-03-08T13:42:46;99563.00;;;16.00
9985;BMP180;16737;50.932;6.780;2024-03-08T13:45:16;99565.00;;;16.00
9985;BMP180;16737;50.932;6.780;2024-03-08T13:47:48;99562.00;;;16.00
9985;BMP180;16737;50.932;6.780;2024-03-08T13:50:17;99551.00;;;16.00
9985;BMP180;16737;50.932;6.780;2024-03-08T13:52:47;99545.00;;;15.90
9985;BMP180;16737;50.932;6.780;2024-03-08T13:55:17;99539.00;;;15.90
9985;BMP180;16737;50.932;6.780;2024-03-08T13:57:44;99528.00;;;16.00
9985;BMP180;16737;50.932;6.780;2024-03-08T14:00:15;99530.00;;;16.00
9985;BMP180;16737;50.932;6.780;2024-03-08T14:02:42;99524.00;;;16.00
9985;BMP180;16737;50.932;6.780;2024-03-08T14:05:09;99518.00;;;16.00
9985;BMP180;16737;50.932;6.780;2024-03-08T14:07:37;99518.00;;;16.00
9985;BMP180;16737;50.932;6.780;2024-03-08T14:10:06;99513.00;;;16.00
9985;BMP180;16737;50.932;6.780;2024-03-08T14:12:35;99511.00;;;16.00
9985;BMP180;16737;50.932;6.780;2024-03-08T14:15:05;99511.00;;;16.00
9985;BMP180;16737;50.932;6.780;2024-03-08T14:17:33;99502.00;;;16.00
9985;BMP180;16737;50.932;6.780;2024-03-08T14:20:01;99511.00;;;16.00
9985;BMP180;16737;50.932;6.780;2024-03-08T14:22:29;99496.00;;;16.00
9985;BMP180;16737;50.932;6.780;2024-03-08T14:24:57;99491.00;;;16.00
9985;BMP180;16737;50.932;6.780;2024-03-08T14:27:24;99490.00;;;15.90
9985;BMP180;16737;50.932;6.780;2024-03-08T14:29:52;99491.00;;;15.90
9985;BMP180;16737;50.932;6.780;2024-03-08T14:32:20;99481.00;;;15.90